Time;durP1;ratioP1;P1;durP2;ratioP2;P2;SDS_P1;SDS_P2;PMS_P1;PMS_P2;Temp;Humidity;BMP_temperature;BMP_pressure;BME280_temperature;BME280_humidity;BME280_pressure;Samples;Min_cycle;Max_cycle;Signal;HPM_P1;HPM_P2
2021/09/20 00:02:08;;;;;;;23.90;18.05;;;;;;;16.69;99.53;100148.42;1778594;80;21306;-69
2021/09/20 00:04:41;;;;;;;23.57;18.65;;;;;;;16.70;99.55;100147.41;1793142;80;21210;-69
2021/09/20 00:07:15;;;;;;;25.05;17.73;;;;;;;16.71;99.41;100151.21;1774705;80;21132;-69
2021/09/20 00:09:48;;;;;;;23.65;18.98;;;;;;;16.70;99.26;100145.59;1788976;80;21315;-68
2021/09/20 00:12:22;;;;;;;24.67;18.90;;;;;;;16.71;99.11;100146.42;1775635;79;21139;-69
2021/09/20 00:14:56;;;;;;;21.48;17.20;;;;;;;16.70;98.93;100146.08;1780910;80;21145;-69
2021/09/20 00:17:30;;;;;;;25.57;19.23;;;;;;;16.69;98.96;100146.58;1771056;80;21201;-68
2021/09/20 00:20:06;;;;;;;24.75;19.73;;;;;;;16.70;98.97;100140.80;1766830;80;21692;-69
2021/09/20 00:22:39;;;;;;;26.25;20.40;;;;;;;16.72;99.00;100142.76;1772711;80;21321;-69
2021/09/20 00:25:13;;;;;;;26.17;19.77;;;;;;;16.71;98.96;100141.95;1775304;80;21199;-69
2021/09/20 00:27:46;;;;;;;28.67;20.75;;;;;;;16.73;99.08;100139.13;1775064;80;21262;-68
2021/09/20 00:30:19;;;;;;;29.57;22.23;;;;;;;16.73;99.05;100133.84;1790211;79;21210;-69
2021/09/20 00:32:54;;;;;;;31.05;23.15;;;;;;;16.73;98.85;100132.52;1774238;80;21395;-69
2021/09/20 00:35:27;;;;;;;32.07;23.30;;;;;;;16.71;98.63;100124.78;1780694;80;21337;-69
2021/09/20 00:38:01;;;;;;;29.07;22.77;;;;;;;16.71;98.69;100131.87;1792986;79;22394;-69
2021/09/20 00:40:34;;;;;;;32.00;23.25;;;;;;;16.72;98.78;100125.08;1785390;80;21269;-69
2021/09/20 00:43:08;;;;;;;;;;;;;;;16.72;98.57;100126.40;1791803;79;21214;-69
2021/09/20 00:45:41;;;;;;;29.45;22.37;;;;;;;16.73;98.52;100131.20;1780076;79;20165;-69
2021/09/20 00:48:14;;;;;;;29.98;23.22;;;;;;;16.71;98.52;100123.95;1782381;80;21353;-69
2021/09/20 00:50:48;;;;;;;30.40;23.73;;;;;;;16.72;98.61;100118.47;1770255;79;21776;-69
2021/09/20 00:53:21;;;;;;;32.48;23.05;;;;;;;16.73;98.52;100119.30;1779848;79;21713;-69
2021/09/20 00:55:54;;;;;;;30.40;23.95;;;;;;;16.72;98.37;100122.44;1794778;80;21189;-69
2021/09/20 00:58:27;;;;;;;31.23;22.80;;;;;;;16.72;98.24;100124.25;1785769;80;21135;-69
2021/09/20 01:01:02;;;;;;;31.55;24.12;;;;;;;16.71;98.25;100122.13;1785758;79;21266;-69
2021/09/20 01:03:35;;;;;;;32.88;25.02;;;;;;;16.71;98.36;100118.17;1785339;80;21274;-69
2021/09/20 01:06:08;;;;;;;35.35;26.50;;;;;;;16.73;98.33;100122.77;1770414;80;21257;-68
2021/09/20 01:08:41;;;;;;;41.08;28.42;;;;;;;16.71;98.12;100122.13;1782295;79;21273;-68
2021/09/20 01:11:15;;;;;;;46.02;30.05;;;;;;;16.70;98.05;100127.58;1770700;80;21155;-69
2021/09/20 01:13:49;;;;;;;49.75;30.35;;;;;;;16.67;97.92;100130.60;1773044;80;21187;-68
2021/09/20 01:16:23;;;;;;;54.80;33.02;;;;;;;16.63;97.84;100136.73;1791880;79;21123;-69
2021/09/20 01:18:56;;;;;;;62.13;35.60;;;;;;;16.59;97.79;100140.73;1780280;80;21278;-69
2021/09/20 01:21:29;;;;;;;61.45;35.30;;;;;;;16.55;97.72;100138.10;1773983;80;21258;-69
2021/09/20 01:24:04;;;;;;;59.18;35.00;;;;;;;16.48;97.60;100129.73;1777943;80;21269;-69
2021/09/20 01:26:37;;;;;;;58.23;32.95;;;;;;;16.46;97.68;100135.66;1777287;80;21781;-69
2021/09/20 01:29:10;;;;;;;63.30;34.45;;;;;;;16.44;97.82;100146.42;1775936;80;21210;-67
2021/09/20 01:31:44;;;;;;;61.85;35.40;;;;;;;16.42;97.93;100141.81;1773177;80;21203;-68
2021/09/20 01:34:17;;;;;;;60.15;34.83;;;;;;;16.42;98.01;100145.78;1766821;80;21242;-68
2021/09/20 01:36:51;;;;;;;63.58;35.30;;;;;;;16.42;97.98;100141.81;1769690;80;21266;-68
2021/09/20 01:39:28;;;;;;;59.10;34.78;;;;;;;16.42;97.89;100142.31;1767555;80;21285;-69
2021/09/20 01:42:01;;;;;;;63.20;34.30;;;;;;;16.41;97.93;100145.94;1774917;80;21275;-69
2021/09/20 01:44:36;;;;;;;66.22;33.45;;;;;;;16.41;97.91;100147.26;1766490;80;21237;-69
2021/09/20 01:47:08;;;;;;;54.25;30.25;;;;;;;16.39;97.98;100147.94;1768563;80;21278;-69
2021/09/20 01:49:42;;;;;;;65.55;32.67;;;;;;;16.35;97.79;100139.55;1784963;80;21313;-68
2021/09/20 01:52:15;;;;;;;57.97;31.33;;;;;;;16.27;97.69;100142.24;1772769;80;21202;-69
2021/09/20 01:54:48;;;;;;;49.23;29.07;;;;;;;16.21;97.87;100139.00;1781252;79;21321;-68
2021/09/20 01:57:23;;;;;;;;;;;;;;;16.15;97.92;100143.14;1757000;79;21187;-69
2021/09/20 01:59:55;;;;;;;53.60;31.17;;;;;;;16.12;98.05;100149.30;1768351;80;20236;-69
2021/09/20 02:02:28;;;;;;;55.33;31.73;;;;;;;16.09;98.36;100145.67;1778541;80;22104;-69
2021/09/20 02:05:02;;;;;;;55.63;29.12;;;;;;;16.09;98.53;100147.81;1781313;80;21186;-69
2021/09/20 02:07:35;;;;;;;;;;;;;;;16.08;98.48;100156.72;1778403;80;21135;-70
2021/09/20 02:10:12;;;;;;;52.27;29.12;;;;;;;16.06;98.55;100154.76;1779910;79;20245;-67
2021/09/20 02:12:46;;;;;;;57.15;30.05;;;;;;;16.04;98.71;100144.88;1775822;80;21142;-69
2021/09/20 02:15:19;;;;;;;55.15;30.30;;;;;;;16.03;98.64;100148.98;1767008;80;21302;-70
2021/09/20 02:17:52;;;;;;;57.05;30.88;;;;;;;16.01;98.79;100150.98;1779695;80;21689;-70
2021/09/20 02:20:25;;;;;;;;;;;;;;;16.00;98.89;100152.80;1791238;79;21211;-69
2021/09/20 02:22:58;;;;;;;61.98;30.88;;;;;;;16.01;98.90;100154.95;1778958;80;20225;-69
2021/09/20 02:25:32;;;;;;;55.55;30.75;;;;;;;15.96;98.89;100152.83;1783585;79;21278;-69
2021/09/20 02:28:05;;;;;;;43.40;22.70;;;;;;;15.95;98.90;100143.25;1773135;80;21344;-69
2021/09/20 02:30:39;;;;;;;54.60;29.60;;;;;;;15.94;98.83;100148.71;1790150;79;21151;-70
2021/09/20 02:33:12;;;;;;;54.30;28.70;;;;;;;15.92;98.77;100148.06;1784049;79;21270;-69
2021/09/20 02:35:45;;;;;;;55.58;31.02;;;;;;;15.90;98.66;100152.70;1771607;79;21274;-69
2021/09/20 02:38:19;;;;;;;55.80;31.10;;;;;;;15.88;98.59;100149.42;1777849;80;21269;-69
2021/09/20 02:40:52;;;;;;;53.98;30.25;;;;;;;15.88;98.59;100145.45;1790288;79;21171;-68
2021/09/20 02:43:25;;;;;;;54.35;29.90;;;;;;;15.86;98.41;100144.29;1776072;80;21274;-69
2021/09/20 02:45:58;;;;;;;53.80;29.80;;;;;;;15.84;98.13;100144.13;1786682;79;21321;-69
2021/09/20 02:48:32;;;;;;;54.27;30.65;;;;;;;15.80;97.98;100136.24;1792077;79;21286;-69
2021/09/20 02:51:07;;;;;;;58.65;31.60;;;;;;;15.78;97.90;100132.47;1771534;80;21303;-69
2021/09/20 02:53:41;;;;;;;57.08;31.12;;;;;;;15.77;97.89;100132.63;1773943;78;21685;-69
2021/09/20 02:56:14;;;;;;;;;;;;;;;15.78;97.94;100134.28;1815005;78;21140;-69
2021/09/20 02:58:47;;;;;;;54.50;30.55;;;;;;;15.81;98.00;100140.02;1817886;78;20164;-69
2021/09/20 03:01:21;;;;;;;55.75;31.57;;;;;;;15.79;97.85;100139.86;1820097;78;21255;-69
2021/09/20 03:03:54;;;;;;;65.55;35.40;;;;;;;15.76;97.57;100146.31;1824002;78;21314;-69
2021/09/20 03:06:27;;;;;;;63.83;34.45;;;;;;;15.74;97.57;100153.58;1827498;78;21298;-68
2021/09/20 03:09:01;;;;;;;61.65;35.33;;;;;;;15.72;97.29;100156.89;1814482;78;21143;-70
2021/09/20 03:11:34;;;;;;;65.37;35.40;;;;;;;15.70;97.18;100162.02;1823045;78;21257;-69
2021/09/20 03:14:08;;;;;;;59.58;33.83;;;;;;;15.68;97.13;100158.73;1822393;78;21304;-69
2021/09/20 03:16:42;;;;;;;68.52;36.65;;;;;;;15.67;97.17;100156.58;1721648;81;21184;-69
2021/09/20 03:19:15;;;;;;;;;;;;;;;15.68;97.10;100163.52;1754277;81;21150;-68
2021/09/20 03:21:49;;;;;;;63.45;35.52;;;;;;;15.67;97.04;100159.22;1753404;80;20256;-69
2021/09/20 03:24:22;;;;;;;58.75;34.78;;;;;;;15.65;97.08;100157.25;1748621;81;21323;-70
2021/09/20 03:26:56;;;;;;;62.38;35.20;;;;;;;15.62;96.65;100164.70;1776838;80;21714;-68
2021/09/20 03:29:29;;;;;;;59.80;34.50;;;;;;;15.59;96.63;100168.99;1807497;78;21143;-69
2021/09/20 03:32:03;;;;;;;57.75;34.85;;;;;;;15.56;96.53;100172.80;1817628;78;21260;-68
2021/09/20 03:34:37;;;;;;;63.95;36.20;;;;;;;15.55;96.59;100174.30;1822201;78;21686;-69
2021/09/20 03:37:10;;;;;;;65.47;37.65;;;;;;;15.51;96.40;100167.20;1828081;78;21323;-68
2021/09/20 03:39:43;;;;;;;62.50;36.98;;;;;;;15.48;96.21;100160.44;1826146;78;21232;-69
2021/09/20 03:42:17;;;;;;;66.70;38.38;;;;;;;15.45;96.02;100166.05;1822279;78;21743;-70
2021/09/20 03:44:50;;;;;;;72.27;40.35;;;;;;;15.45;96.17;100162.09;1804101;78;21243;-69
2021/09/20 03:47:23;;;;;;;70.40;40.25;;;;;;;15.46;96.08;100153.20;1823043;78;21251;-69
2021/09/20 03:49:56;;;;;;;73.02;40.55;;;;;;;15.43;95.70;100155.30;1812327;78;21165;-69
2021/09/20 03:52:29;;;;;;;70.00;39.15;;;;;;;15.42;95.75;100151.05;1823854;78;21304;-69
2021/09/20 03:55:02;;;;;;;;;;;;;;;15.40;95.73;100152.51;1807342;78;21227;-69
2021/09/20 03:57:35;;;;;;;69.32;39.25;;;;;;;15.41;95.86;100163.41;1826360;77;20230;-69
2021/09/20 04:00:11;;;;;;;68.12;40.10;;;;;;;15.43;95.92;100161.91;1827544;78;21277;-65
2021/09/20 04:02:44;;;;;;;73.70;40.95;;;;;;;15.44;95.74;100164.42;1826727;78;21665;-68
2021/09/20 04:05:19;;;;;;;65.62;37.13;;;;;;;15.43;95.55;100158.77;1816720;78;21305;-69
2021/09/20 04:07:52;;;;;;;70.97;40.38;;;;;;;15.42;95.34;100157.64;1821620;78;21272;-69
2021/09/20 04:10:26;;;;;;;69.12;42.20;;;;;;;15.37;95.24;100158.14;1827899;78;21292;-70
2021/09/20 04:12:59;;;;;;;67.50;40.00;;;;;;;15.36;95.34;100159.13;1817533;78;21136;-69
2021/09/20 04:15:37;;;;;;;72.87;39.60;;;;;;;15.35;95.33;100154.86;1828174;78;21149;-69
2021/09/20 04:18:09;;;;;;;72.30;40.40;;;;;;;15.37;95.51;100154.19;1756118;81;21275;-68
2021/09/20 04:20:43;;;;;;;68.78;39.00;;;;;;;15.39;95.43;100152.20;1749655;81;21130;-67
2021/09/20 04:23:18;;;;;;;81.35;42.58;;;;;;;15.40;95.42;100156.47;1823131;78;21212;-69
2021/09/20 04:25:52;;;;;;;87.53;44.35;;;;;;;15.41;95.33;100156.80;1820628;78;21253;-68
2021/09/20 04:28:25;;;;;;;102.42;48.73;;;;;;;15.43;95.17;100161.41;1824398;78;21739;-66
2021/09/20 04:30:58;;;;;;;113.50;52.10;;;;;;;15.43;94.79;100163.22;1805520;78;21272;-68
2021/09/20 04:33:32;;;;;;;110.32;54.15;;;;;;;15.41;94.73;100163.41;1815451;78;21307;-69
2021/09/20 04:36:06;;;;;;;113.45;53.30;;;;;;;15.44;94.65;100166.20;1817640;78;21125;-68
2021/09/20 04:38:39;;;;;;;113.70;53.00;;;;;;;15.45;94.49;100170.01;1804222;78;21255;-68
2021/09/20 04:41:13;;;;;;;119.35;54.03;;;;;;;15.48;94.31;100170.17;1824559;78;21134;-67
2021/09/20 04:43:46;;;;;;;103.45;49.73;;;;;;;15.50;94.09;100182.20;1824670;78;21168;-67
2021/09/20 04:46:20;;;;;;;107.00;50.28;;;;;;;15.50;93.97;100180.88;1796340;78;21859;-65
2021/09/20 04:48:53;;;;;;;99.47;50.15;;;;;;;15.50;93.88;100182.69;1779648;79;21311;-69
2021/09/20 04:51:26;;;;;;;102.72;49.98;;;;;;;15.50;93.65;100180.88;1778809;79;21328;-68
2021/09/20 04:53:59;;;;;;;;;;;;;;;15.56;93.66;100185.16;1818280;78;21149;-63
2021/09/20 04:56:34;;;;;;;105.03;51.43;;;;;;;15.57;93.51;100184.17;1789651;78;20658;-67
2021/09/20 04:59:08;;;;;;;100.45;50.63;;;;;;;15.57;93.51;100184.17;1804799;78;21299;-66
2021/09/20 05:01:41;;;;;;;98.27;50.88;;;;;;;15.59;93.18;100183.51;1790610;77;21186;-70
2021/09/20 05:04:15;;;;;;;96.10;49.38;;;;;;;15.61;93.13;100182.83;1799586;77;21288;-66
2021/09/20 05:06:48;;;;;;;;;;;;;;;15.63;93.03;100184.80;1791757;78;21188;-67
2021/09/20 05:09:21;;;;;;;87.95;44.70;;;;;;;15.64;92.62;100179.37;1788680;78;20677;-68
2021/09/20 05:11:55;;;;;;;84.67;45.60;;;;;;;15.66;92.54;100180.52;1794551;77;21355;-70
2021/09/20 05:14:28;;;;;;;;;;;;;;;15.69;92.25;100186.26;1801081;77;21183;-70
2021/09/20 05:17:03;;;;;;;71.05;40.95;;;;;;;15.72;92.10;100189.05;1795607;77;20214;-68
2021/09/20 05:19:36;;;;;;;60.28;37.25;;;;;;;15.75;91.98;100192.19;1807543;78;21763;-69
2021/09/20 05:22:09;;;;;;;59.93;36.68;;;;;;;15.78;91.25;100194.50;1789552;78;21287;-70
2021/09/20 05:24:43;;;;;;;61.77;37.58;;;;;;;15.77;90.85;100190.69;1791888;78;21201;-70
2021/09/20 05:27:17;;;;;;;64.07;38.45;;;;;;;15.78;90.75;100187.90;1790773;78;21136;-69
2021/09/20 05:29:50;;;;;;;55.07;33.93;;;;;;;15.82;90.84;100184.41;1792264;78;21805;-71
2021/09/20 05:32:24;;;;;;;57.98;34.92;;;;;;;15.87;90.56;100196.11;1791110;78;21158;-69
2021/09/20 05:34:57;;;;;;;59.27;34.80;;;;;;;15.90;90.24;100197.58;1785169;77;21306;-66
2021/09/20 05:37:30;;;;;;;;;;;;;;;15.90;89.86;100193.63;1793432;78;21204;-66
2021/09/20 05:40:02;;;;;;;52.45;32.75;;;;;;;15.89;89.76;100191.96;1792097;78;20291;-65
2021/09/20 05:42:35;;;;;;;49.25;31.12;;;;;;;15.88;89.48;100193.77;1797464;78;21235;-64
2021/09/20 05:45:11;;;;;;;52.98;32.65;;;;;;;15.90;89.17;100190.98;1785231;78;21340;-65
2021/09/20 05:47:44;;;;;;;56.48;30.82;;;;;;;15.93;88.99;100198.57;1798266;78;21341;-68
2021/09/20 05:50:17;;;;;;;;;;;;;;;15.92;88.77;100200.38;1795021;77;21129;-67
2021/09/20 05:52:50;;;;;;;51.70;30.97;;;;;;;15.94;88.84;100208.12;1796979;77;20261;-68
2021/09/20 05:55:23;;;;;;;53.13;30.15;;;;;;;15.93;89.05;100204.64;1789168;78;21190;-68
2021/09/20 05:57:56;;;;;;;57.58;29.25;;;;;;;15.98;89.03;100201.48;1801363;78;21156;-69
2021/09/20 06:00:30;;;;;;;56.48;30.12;;;;;;;16.08;89.28;100198.14;1791570;78;21283;-69
2021/09/20 06:03:04;;;;;;;44.10;27.07;;;;;;;16.18;89.21;100202.23;1781379;78;21208;-69
2021/09/20 06:05:38;;;;;;;44.25;27.37;;;;;;;16.28;88.54;100192.77;1781451;78;21299;-65
2021/09/20 06:08:11;;;;;;;43.17;26.02;;;;;;;16.34;87.93;100192.55;1793991;78;21282;-66
2021/09/20 06:10:44;;;;;;;50.30;28.50;;;;;;;16.35;87.27;100188.92;1794703;77;21282;-67
2021/09/20 06:13:20;;;;;;;53.42;30.37;;;;;;;16.35;87.12;100191.56;1790873;78;21138;-67
2021/09/20 06:15:53;;;;;;;;;;;;;;;16.38;87.40;100196.02;1787010;78;21255;-66
2021/09/20 06:18:26;;;;;;;49.42;29.32;;;;;;;16.44;87.32;100191.83;1792016;78;20252;-69
2021/09/20 06:20:59;;;;;;;54.90;30.70;;;;;;;16.49;87.46;100202.70;1802104;78;21316;-67
2021/09/20 06:23:33;;;;;;;59.67;29.92;;;;;;;16.53;87.33;100211.45;1792928;77;21770;-68
2021/09/20 06:26:06;;;;;;;52.20;30.50;;;;;;;16.55;87.27;100217.91;1792817;77;21331;-68
2021/09/20 06:28:39;;;;;;;59.08;31.75;;;;;;;16.54;87.15;100226.82;1775675;78;21274;-70
2021/09/20 06:31:14;;;;;;;49.15;29.45;;;;;;;16.54;87.43;100234.75;1784655;78;21209;-69
2021/09/20 06:33:47;;;;;;;46.77;27.45;;;;;;;16.55;87.62;100241.70;1791660;78;21305;-69
2021/09/20 06:36:21;;;;;;;40.23;25.08;;;;;;;16.54;87.86;100245.32;1807470;77;21335;-65
2021/09/20 06:38:54;;;;;;;44.13;27.02;;;;;;;16.51;88.00;100251.78;1794083;78;21174;-66
2021/09/20 06:41:27;;;;;;;44.57;27.17;;;;;;;16.47;88.25;100258.88;1788827;79;21304;-67
2021/09/20 06:44:02;;;;;;;54.25;27.85;;;;;;;16.42;88.52;100258.08;1794642;78;21412;-68
2021/09/20 06:46:40;;;;;;;50.43;28.52;;;;;;;16.41;88.92;100259.55;1794581;78;21164;-70
2021/09/20 06:49:33;;;;;;;47.13;25.92;;;;;;;16.41;89.25;100260.38;1782750;78;21233;-67
2021/09/20 06:52:09;;;;;;;46.60;25.40;;;;;;;16.43;89.69;100257.06;1786264;78;21348;-69
2021/09/20 06:54:42;;;;;;;43.38;24.52;;;;;;;16.45;89.87;100266.16;1806165;78;21333;-69
2021/09/20 06:57:16;;;;;;;47.85;27.02;;;;;;;16.41;90.00;100277.55;1792321;78;21819;-67
2021/09/20 06:59:49;;;;;;;49.77;25.12;;;;;;;16.38;90.35;100270.00;1788941;78;21334;-67
2021/09/20 07:02:24;;;;;;;40.35;23.25;;;;;;;16.35;90.61;100254.48;1789659;78;21141;-68
2021/09/20 07:04:57;;;;;;;46.92;24.40;;;;;;;16.37;91.13;100249.84;1786188;78;21377;-67
2021/09/20 07:07:32;;;;;;;37.88;21.65;;;;;;;16.39;91.26;100269.48;1780152;77;21296;-69
2021/09/20 07:10:12;;;;;;;39.58;22.48;;;;;;;16.41;91.61;100277.55;1792931;78;21372;-71
2021/09/20 07:12:45;;;;;;;35.75;20.43;;;;;;;16.39;91.92;100279.55;1792767;77;21240;-65
2021/09/20 07:15:20;;;;;;;35.88;19.70;;;;;;;16.36;92.08;100273.80;1790616;79;21267;-66
2021/09/20 07:17:55;;;;;;;36.50;22.15;;;;;;;16.31;92.34;100269.53;1781465;78;21306;-68
2021/09/20 07:20:28;;;;;;;42.85;23.62;;;;;;;16.31;92.63;100263.73;1799923;77;21292;-66
2021/09/20 07:23:01;;;;;;;38.90;22.85;;;;;;;16.37;92.88;100268.83;1774821;78;22245;-67
2021/09/20 07:25:34;;;;;;;39.20;23.38;;;;;;;16.40;92.97;100265.36;1791208;78;21303;-65
2021/09/20 07:28:07;;;;;;;44.90;23.60;;;;;;;16.44;93.05;100271.94;1776183;78;21256;-65
2021/09/20 07:30:43;;;;;;;45.78;24.67;;;;;;;16.47;93.05;100267.63;1780450;78;21388;-63
2021/09/20 07:33:25;;;;;;;42.78;24.77;;;;;;;16.50;93.08;100263.30;1771905;78;21288;-66
2021/09/20 07:35:59;;;;;;;49.88;26.30;;;;;;;16.54;93.11;100265.97;1781964;77;21125;-68
2021/09/20 07:38:45;;;;;;;46.70;26.35;;;;;;;16.60;93.21;100267.91;1790230;78;21261;-65
2021/09/20 07:41:18;;;;;;;43.35;25.32;;;;;;;16.68;93.41;100273.16;1736023;81;21196;-66
2021/09/20 07:44:10;;;;;;;47.17;25.10;;;;;;;16.74;93.24;100275.08;1686076;82;21673;-69
2021/09/20 07:46:46;;;;;;;47.27;25.50;;;;;;;16.76;93.00;100269.15;1700505;82;21308;-68
2021/09/20 07:49:19;;;;;;;42.78;25.60;;;;;;;16.76;92.94;100273.11;1696452;82;21950;-67
2021/09/20 07:51:52;;;;;;;;;;;;;;;16.77;92.93;100271.27;1696716;82;21393;-67
2021/09/20 07:54:25;;;;;;;50.52;27.30;;;;;;;16.80;93.21;100272.25;1690648;82;20335;-67
2021/09/20 07:56:59;;;;;;;42.73;23.90;;;;;;;16.83;93.34;100273.23;1654932;82;21345;-69
2021/09/20 07:59:34;;;;;;;49.10;26.07;;;;;;;16.87;93.24;100271.03;1694784;82;21312;-68
2021/09/20 08:02:08;;;;;;;53.38;25.97;;;;;;;16.89;93.26;100265.90;1667663;84;21466;-69
2021/09/20 08:04:44;;;;;;;44.23;24.87;;;;;;;16.94;93.23;100260.91;1663346;82;21208;-66
2021/09/20 08:07:22;;;;;;;59.38;26.17;;;;;;;17.01;93.14;100260.52;1691527;82;21635;-66
2021/09/20 08:10:15;;;;;;;39.42;23.10;;;;;;;17.15;92.92;100257.59;1683229;82;21376;-68
2021/09/20 08:12:53;;;;;;;44.45;27.95;;;;;;;17.38;92.25;100250.47;1687361;82;21290;-67
2021/09/20 08:15:31;;;;;;;44.45;25.17;;;;;;;17.65;91.50;100247.23;1700578;79;22098;-68
2021/09/20 08:18:24;;;;;;;46.88;24.12;;;;;;;17.97;90.30;100252.17;1745583;79;21329;-67
2021/09/20 08:21:06;;;;;;;40.95;23.40;;;;;;;18.32;89.28;100250.56;1731527;81;21706;-68
2021/09/20 08:23:40;;;;;;;39.08;23.95;;;;;;;18.66;87.97;100249.47;1734312;80;21193;-65
2021/09/20 08:26:13;;;;;;;35.83;23.03;;;;;;;18.90;86.34;100235.02;1743863;80;21279;-66
2021/09/20 08:28:50;;;;;;;39.05;24.12;;;;;;;19.02;84.63;100228.68;1727172;81;21884;-67
2021/09/20 08:31:51;;;;;;;37.03;23.85;;;;;;;19.10;83.51;100225.41;1719301;80;21307;-64
2021/09/20 08:34:29;;;;;;;39.50;24.98;;;;;;;19.15;82.44;100232.79;1736793;81;21220;-65
2021/09/20 08:37:03;;;;;;;39.90;23.98;;;;;;;19.12;81.00;100229.19;1735893;81;21872;-69
2021/09/20 08:39:37;;;;;;;35.55;22.85;;;;;;;19.05;80.70;100230.46;1734301;80;21273;-68
2021/09/20 08:42:23;;;;;;;36.63;22.70;;;;;;;19.04;79.95;100226.66;1795886;77;21353;-68
2021/09/20 08:45:17;;;;;;;35.13;23.02;;;;;;;19.03;80.07;100225.86;1795800;76;21260;-67
2021/09/20 08:47:53;;;;;;;38.20;23.65;;;;;;;19.06;80.31;100229.44;1775937;78;21333;-66
2021/09/20 08:50:34;;;;;;;37.83;24.47;;;;;;;19.12;80.40;100230.02;1785831;78;21600;-66
2021/09/20 08:53:14;;;;;;;37.53;25.15;;;;;;;19.21;80.44;100230.68;1771111;78;21348;-70
2021/09/20 08:55:59;;;;;;;39.88;25.10;;;;;;;19.28;79.93;100231.55;1776687;79;21286;-65
2021/09/20 08:58:33;;;;;;;61.13;29.35;;;;;;;19.30;79.79;100227.69;1784319;78;21152;-69
2021/09/20 09:01:12;;;;;;;41.45;28.10;;;;;;;19.34;79.40;100223.66;1766824;79;21263;-68
2021/09/20 09:03:50;;;;;;;41.65;28.15;;;;;;;19.36;78.38;100221.66;1752195;79;21188;-67
2021/09/20 09:06:33;;;;;;;;;;;;;;;19.30;78.29;100226.37;1815426;76;21305;-67
2021/09/20 09:09:06;;;;;;;44.73;28.38;;;;;;;19.21;78.05;100214.25;1765492;79;20929;-65
2021/09/20 09:11:39;;;;;;;;;;;;;;;19.13;78.30;100215.71;1761323;79;21177;-66
2021/09/20 09:14:12;;;;;;;41.88;28.23;;;;;;;19.10;78.45;100212.14;1765766;79;20213;-67
2021/09/20 09:16:51;;;;;;;42.83;29.98;;;;;;;19.01;78.38;100219.89;1764796;79;21283;-68
2021/09/20 09:19:32;;;;;;;48.00;31.15;;;;;;;18.89;78.54;100228.05;1744890;79;21206;-67
2021/09/20 09:22:08;;;;;;;44.77;29.77;;;;;;;18.75;79.34;100217.83;1719236;81;21175;-66
2021/09/20 09:24:59;;;;;;;;;;;;;;;18.65;79.66;100219.97;1758093;80;21153;-68
2021/09/20 09:27:44;;;;;;;46.30;30.60;;;;;;;18.55;79.82;100223.95;1753912;79;20602;-66
2021/09/20 09:30:29;;;;;;;43.73;31.77;;;;;;;18.36;80.17;100214.75;1751258;80;21189;-66
2021/09/20 09:33:09;;;;;;;46.28;32.00;;;;;;;18.25;80.55;100216.55;1753123;80;21498;-68
2021/09/20 09:35:49;;;;;;;48.65;32.98;;;;;;;18.13;81.25;100208.75;1754341;80;21152;-67
2021/09/20 09:38:36;;;;;;;50.98;33.53;;;;;;;18.07;81.81;100206.36;1753028;80;21238;-66
2021/09/20 09:41:09;;;;;;;52.20;35.13;;;;;;;18.03;82.30;100208.25;1737887;81;21304;-67
2021/09/20 09:43:46;;;;;;;56.58;35.48;;;;;;;18.04;82.70;100209.38;1736405;81;21153;-66
2021/09/20 09:46:24;;;;;;;51.57;34.87;;;;;;;18.11;83.21;100214.25;1748502;81;21173;-66
2021/09/20 09:48:58;;;;;;;51.92;35.55;;;;;;;18.34;83.58;100207.47;1735596;81;21186;-68
2021/09/20 09:52:03;;;;;;;52.95;35.33;;;;;;;18.77;83.68;100211.03;1736652;81;21293;-67
2021/09/20 09:54:43;;;;;;;59.08;37.60;;;;;;;19.17;82.92;100218.81;1738402;81;21145;-66
2021/09/20 09:57:23;;;;;;;55.33;38.53;;;;;;;19.43;81.88;100219.87;1729490;81;21358;-67
2021/09/20 10:00:01;;;;;;;47.55;35.17;;;;;;;19.50;80.91;100231.86;1724393;81;21807;-65
2021/09/20 10:02:52;;;;;;;55.67;37.33;;;;;;;19.46;80.02;100231.94;1721699;81;21308;-68
2021/09/20 10:05:27;;;;;;;57.88;37.28;;;;;;;19.35;80.32;100233.25;1724600;82;21180;-66
2021/09/20 10:08:00;;;;;;;52.50;35.35;;;;;;;19.26;80.99;100218.98;1734849;81;21724;-66
2021/09/20 10:10:45;;;;;;;57.88;36.70;;;;;;;19.18;81.79;100219.11;1719425;81;21214;-70
2021/09/20 10:13:24;;;;;;;58.90;38.65;;;;;;;19.06;82.44;100218.02;1723922;81;21225;-67
2021/09/20 10:15:58;;;;;;;61.55;37.90;;;;;;;18.92;83.14;100225.02;1728938;82;21312;-68
2021/09/20 10:18:31;;;;;;;62.17;35.40;;;;;;;18.79;83.81;100241.63;1723306;83;21292;-68
2021/09/20 10:21:06;;;;;;;55.95;34.08;;;;;;;18.63;83.98;100232.59;1721729;83;21687;-69
2021/09/20 10:23:45;;;;;;;52.17;34.03;;;;;;;18.47;84.33;100228.03;1719588;83;21174;-66
2021/09/20 10:26:22;;;;;;;27.80;20.48;;;;;;;18.37;84.85;100231.45;1724415;81;21426;-69
2021/09/20 10:29:04;;;;;;;25.17;17.60;;;;;;;18.35;85.66;100229.00;1733234;81;22500;-67
2021/09/20 10:31:52;;;;;;;22.35;17.98;;;;;;;18.52;85.43;100223.00;1732596;80;21184;-69
2021/09/20 10:34:30;;;;;;;24.07;18.98;;;;;;;18.75;85.44;100224.46;1734023;81;21349;-67
2021/09/20 10:37:13;;;;;;;;;;;;;;;18.94;85.38;100211.59;1736918;81;21208;-68
2021/09/20 10:40:04;;;;;;;23.65;18.20;;;;;;;19.07;84.86;100211.19;1731586;79;20235;-67
2021/09/20 10:42:49;;;;;;;26.52;20.05;;;;;;;19.25;84.67;100224.80;1753632;80;21260;-64
2021/09/20 10:45:45;;;;;;;26.33;19.25;;;;;;;19.45;83.91;100224.48;1750063;80;21167;-67
2021/09/20 10:48:31;;;;;;;26.12;18.87;;;;;;;19.66;83.21;100225.41;1756183;78;21306;-67
2021/09/20 10:51:22;;;;;;;27.00;19.60;;;;;;;19.84;82.25;100219.09;1719564;81;21305;-68
2021/09/20 10:54:20;;;;;;;29.72;21.70;;;;;;;19.92;81.46;100226.38;1731746;81;21381;-67
2021/09/20 10:56:56;;;;;;;25.12;18.55;;;;;;;19.93;80.85;100226.70;1696050;81;21874;-67
2021/09/20 10:59:30;;;;;;;28.47;20.10;;;;;;;19.89;80.11;100229.95;1697256;83;21280;-66
2021/09/20 11:02:05;;;;;;;27.80;21.20;;;;;;;19.77;79.94;100232.84;1732657;81;21316;-69
2021/09/20 11:04:41;;;;;;;27.77;21.25;;;;;;;19.66;80.18;100230.72;1728949;81;21190;-70
2021/09/20 11:07:30;;;;;;;30.12;21.42;;;;;;;19.60;80.75;100244.79;1701274;81;21349;-69
2021/09/20 11:10:07;;;;;;;28.30;20.97;;;;;;;19.55;81.26;100247.20;1711175;81;21741;-69
2021/09/20 11:13:06;;;;;;;26.42;19.48;;;;;;;19.57;81.29;100247.33;1715837;81;21282;-66
2021/09/20 11:15:56;;;;;;;28.47;21.20;;;;;;;19.74;81.27;100241.20;1701199;83;21264;-67
2021/09/20 11:18:36;;;;;;;30.10;22.80;;;;;;;19.88;80.19;100249.55;1730569;81;21220;-67
2021/09/20 11:21:12;;;;;;;28.52;22.80;;;;;;;19.96;79.85;100247.58;1773097;79;21239;-67
2021/09/20 11:23:53;;;;;;;32.03;25.23;;;;;;;20.15;79.86;100251.34;1771773;78;21292;-67
2021/09/20 11:26:46;;;;;;;32.93;24.60;;;;;;;20.38;79.45;100250.53;1792135;77;21154;-65
2021/09/20 11:29:44;;;;;;;32.85;24.77;;;;;;;20.54;78.18;100248.84;1787007;77;21291;-65
2021/09/20 11:32:21;;;;;;;34.18;25.37;;;;;;;20.62;77.62;100238.53;1789677;77;21273;-66
2021/09/20 11:34:58;;;;;;;31.42;24.40;;;;;;;20.73;76.09;100244.08;1788996;78;21341;-69
2021/09/20 11:37:33;;;;;;;31.23;24.50;;;;;;;20.85;75.22;100247.50;1781164;79;21263;-68
2021/09/20 11:40:16;;;;;;;33.88;25.05;;;;;;;20.85;74.40;100248.83;1788986;78;21302;-69
2021/09/20 11:42:57;;;;;;;33.30;24.25;;;;;;;20.79;74.65;100241.95;1785757;78;21156;-68
2021/09/20 11:45:38;;;;;;;28.45;23.07;;;;;;;20.79;75.08;100245.13;1752176;80;21346;-67
2021/09/20 11:48:24;;;;;;;25.82;20.02;;;;;;;20.72;74.24;100241.13;1725454;81;21275;-66
2021/09/20 11:51:01;;;;;;;25.10;19.15;;;;;;;20.67;74.19;100236.92;1741655;80;21798;-68
2021/09/20 11:53:34;;;;;;;20.30;16.30;;;;;;;20.71;74.50;100218.70;1746898;78;22254;-67
2021/09/20 11:56:13;;;;;;;19.37;14.58;;;;;;;20.77;74.18;100226.71;1726238;79;21354;-68